createdAt,value
2023-02-19T00:02:14.143Z,82.18
2023-02-19T00:05:16.607Z,82.35
2023-02-19T00:08:19.059Z,82.05
2023-02-19T00:11:25.792Z,82.43
2023-02-19T00:14:28.233Z,82.78
2023-02-19T00:17:31.868Z,82.55
2023-02-19T00:20:34.311Z,82.45
2023-02-19T00:23:37.419Z,82.75
2023-02-19T00:26:41.223Z,82.95
2023-02-19T00:29:43.573Z,82.83
2023-02-19T00:32:51.513Z,82.99
2023-02-19T00:35:53.858Z,82.84
2023-02-19T00:38:56.657Z,83.01
2023-02-19T00:42:00.997Z,82.93
2023-02-19T00:45:03.440Z,82.66
2023-02-19T00:48:05.865Z,82.82
2023-02-19T00:51:08.443Z,83.11
2023-02-19T00:54:12.349Z,83.38
2023-02-19T00:57:14.659Z,83.43
2023-02-19T01:00:17.142Z,83.51
2023-02-19T01:03:19.674Z,83.98
2023-02-19T01:06:22.593Z,84.23
2023-02-19T01:09:25.252Z,84.35
2023-02-19T01:12:28.363Z,84.51
2023-02-19T01:15:33.113Z,84.65
2023-02-19T01:18:35.896Z,84.43
2023-02-19T01:21:39.897Z,84.55
2023-02-19T01:24:42.338Z,84.58
2023-02-19T01:27:44.799Z,84.64
2023-02-19T01:30:47.328Z,84.71
2023-02-19T01:33:56.807Z,84.43
2023-02-19T01:36:59.530Z,84.37
2023-02-19T01:40:01.933Z,84.16
2023-02-19T01:43:04.364Z,84.02
2023-02-19T01:46:06.766Z,83.84
2023-02-19T01:49:23.770Z,83.91
2023-02-19T01:52:34.709Z,84.30
2023-02-19T01:55:37.509Z,84.47
2023-02-19T01:58:41.076Z,84.52
2023-02-19T02:01:43.589Z,84.46
2023-02-19T02:04:45.953Z,84.89
2023-02-19T02:08:23.937Z,84.81
2023-02-19T02:11:26.932Z,84.78
2023-02-19T02:14:33.734Z,84.94
2023-02-19T02:18:00.666Z,84.98
2023-02-19T02:21:25.245Z,85.14
2023-02-19T02:24:46.576Z,84.94
2023-02-19T02:27:52.796Z,85.02
2023-02-19T02:31:02.901Z,85.26
2023-02-19T02:34:07.490Z,85.13
2023-02-19T02:37:11.378Z,85.20
2023-02-19T02:40:17.081Z,85.18
2023-02-19T02:43:19.461Z,85.07
2023-02-19T02:46:36.242Z,85.31
2023-02-19T02:49:59.206Z,85.26
2023-02-19T02:53:25.264Z,85.57
2023-02-19T02:56:29.017Z,85.49
2023-02-19T02:59:36.091Z,85.48
2023-02-19T03:02:40.337Z,85.25
2023-02-19T03:05:53.431Z,85.33
2023-02-19T03:09:07.166Z,85.37
2023-02-19T03:12:33.869Z,85.27
2023-02-19T03:16:03.892Z,85.44
2023-02-19T03:19:20.682Z,85.38
2023-02-19T03:22:30.143Z,85.15
2023-02-19T03:25:54.756Z,85.19
2023-02-19T03:29:17.304Z,85.29
2023-02-19T03:32:27.244Z,85.06
2023-02-19T03:35:33.419Z,84.97
2023-02-19T03:38:38.469Z,84.99
2023-02-19T03:41:48.162Z,84.91
2023-02-19T03:45:30.303Z,84.88
2023-02-19T03:48:49.074Z,84.86
2023-02-19T03:52:11.491Z,85.27
2023-02-19T03:55:27.179Z,85.23
2023-02-19T03:58:41.183Z,85.34
2023-02-19T04:01:55.629Z,85.07
2023-02-19T04:05:19.241Z,85.36
2023-02-19T04:08:24.635Z,85.43
2023-02-19T04:11:28.263Z,85.46
2023-02-19T04:14:49.394Z,85.53
2023-02-19T04:17:57.610Z,85.90
2023-02-19T04:21:01.091Z,85.74
2023-02-19T04:24:09.280Z,85.98
2023-02-19T04:27:11.845Z,85.64
2023-02-19T04:30:15.464Z,85.94
2023-02-19T04:33:17.775Z,85.80
2023-02-19T04:36:20.068Z,86.09
2023-02-19T04:39:22.463Z,85.96
2023-02-19T04:42:24.767Z,85.98
2023-02-19T04:45:27.078Z,85.90
2023-02-19T04:48:29.768Z,86.01
2023-02-19T04:51:32.569Z,85.97
2023-02-19T04:54:35.018Z,85.85
2023-02-19T04:57:37.414Z,85.96
2023-02-19T05:00:40.395Z,86.00
2023-02-19T05:03:43.029Z,85.89
2023-02-19T05:06:45.355Z,86.06
2023-02-19T05:09:47.581Z,86.25
2023-02-19T05:12:50.194Z,86.08
2023-02-19T05:16:07.142Z,86.05
2023-02-19T05:19:13.006Z,85.92
2023-02-19T05:22:15.338Z,85.87
2023-02-19T05:25:17.917Z,85.96
2023-02-19T05:28:20.825Z,85.88
2023-02-19T05:34:26.404Z,85.69
2023-02-19T05:37:28.897Z,85.86
2023-02-19T05:40:31.286Z,85.76
2023-02-19T05:43:33.689Z,85.71
2023-02-19T05:46:36.171Z,85.89
2023-02-19T05:49:38.602Z,85.72
2023-02-19T05:52:41.287Z,85.79
2023-02-19T05:55:43.566Z,85.58
2023-02-19T05:58:46.122Z,85.78
2023-02-19T06:01:50.995Z,85.53
2023-02-19T06:04:53.243Z,85.58
2023-02-19T06:07:55.554Z,85.67
2023-02-19T06:10:58.564Z,85.74
2023-02-19T06:14:00.968Z,85.66
2023-02-19T06:17:03.229Z,85.77
2023-02-19T06:20:06.804Z,85.90
2023-02-19T06:23:09.173Z,85.92
2023-02-19T06:26:23.296Z,85.70
2023-02-19T06:29:25.693Z,85.60
2023-02-19T06:32:28.160Z,85.58
2023-02-19T06:35:30.454Z,85.62
2023-02-19T06:38:32.881Z,85.66
2023-02-19T06:41:35.394Z,85.72
2023-02-19T06:44:37.899Z,85.74
2023-02-19T06:47:40.224Z,85.71
2023-02-19T06:50:42.877Z,85.41
2023-02-19T06:53:46.521Z,85.38
2023-02-19T06:56:48.919Z,85.34
2023-02-19T06:59:51.631Z,85.40
2023-02-19T07:02:56.777Z,85.17
2023-02-19T07:06:01.033Z,84.86
2023-02-19T07:09:05.754Z,84.99
2023-02-19T07:12:08.553Z,85.04
2023-02-19T07:15:11.097Z,84.96
2023-02-19T07:18:13.685Z,84.64
2023-02-19T07:21:17.462Z,84.64
2023-02-19T07:24:21.774Z,84.44
2023-02-19T07:27:24.148Z,84.39
2023-02-19T07:30:26.719Z,84.20
2023-02-19T07:33:29.082Z,84.16
2023-02-19T07:36:31.349Z,83.90
2023-02-19T07:39:33.988Z,83.96
2023-02-19T07:42:36.244Z,83.98
2023-02-19T07:45:38.672Z,83.94
2023-02-19T07:48:43.073Z,83.66
2023-02-19T07:51:45.459Z,83.74
2023-02-19T07:54:48.659Z,83.53
2023-02-19T07:57:50.975Z,83.59
2023-02-19T08:00:53.420Z,83.08
2023-02-19T08:03:55.880Z,82.92
2023-02-19T08:06:58.150Z,82.58
2023-02-19T08:10:19.649Z,82.53
2023-02-19T08:13:28.264Z,82.61
2023-02-19T08:16:42.574Z,82.38
2023-02-19T08:19:45.448Z,82.22
2023-02-19T08:22:47.841Z,82.18
2023-02-19T08:25:51.210Z,81.80
2023-02-19T08:28:53.686Z,81.90
2023-02-19T08:31:56.096Z,82.07
2023-02-19T08:34:58.453Z,82.23
2023-02-19T08:38:00.855Z,82.17
2023-02-19T08:41:09.144Z,81.55
2023-02-19T08:44:11.800Z,81.13
2023-02-19T08:47:15.145Z,80.95
2023-02-19T08:50:17.624Z,80.92
2023-02-19T08:53:20.241Z,80.76
2023-02-19T08:56:22.670Z,80.54
2023-02-19T08:59:25.044Z,80.07
2023-02-19T09:02:27.423Z,79.84
2023-02-19T09:05:30.135Z,79.46
2023-02-19T09:08:32.512Z,79.09
2023-02-19T09:11:35.003Z,78.80
2023-02-19T09:14:38.463Z,78.82
2023-02-19T09:17:40.893Z,78.52
2023-02-19T09:20:43.299Z,78.16
2023-02-19T09:23:45.652Z,78.08
2023-02-19T09:26:55.117Z,78.05
2023-02-19T09:29:58.006Z,77.53
2023-02-19T09:33:00.373Z,77.32
2023-02-19T09:36:03.743Z,77.36
2023-02-19T09:39:08.007Z,77.05
2023-02-19T09:42:20.910Z,76.95
2023-02-19T09:45:25.773Z,76.62
2023-02-19T09:48:28.285Z,76.65
2023-02-19T09:51:34.091Z,76.30
2023-02-19T09:54:39.913Z,76.03
2023-02-19T09:57:43.944Z,75.74
2023-02-19T10:00:50.065Z,75.19
2023-02-19T10:03:53.166Z,74.47
2023-02-19T10:07:03.644Z,74.05
2023-02-19T10:10:24.692Z,73.46
2023-02-19T10:14:02.217Z,73.23
2023-02-19T10:17:07.771Z,72.01
2023-02-19T10:20:16.369Z,72.03
2023-02-19T10:23:19.781Z,70.96
2023-02-19T10:26:23.338Z,70.76
2023-02-19T10:29:27.738Z,69.94
2023-02-19T10:32:30.315Z,70.16
2023-02-19T10:35:58.395Z,67.46
2023-02-19T10:39:03.259Z,65.30
2023-02-19T10:42:06.649Z,65.33
2023-02-19T10:45:20.538Z,65.70
2023-02-19T10:48:36.846Z,64.13
2023-02-19T10:51:41.847Z,59.92
2023-02-19T10:54:45.868Z,56.42
2023-02-19T10:57:50.632Z,54.12
2023-02-19T11:01:21.731Z,54.35
2023-02-19T11:04:25.310Z,56.69
2023-02-19T11:07:28.032Z,54.96
2023-02-19T11:10:41.267Z,54.69
2023-02-19T11:13:44.147Z,53.42
2023-02-19T11:17:05.889Z,54.83
2023-02-19T11:20:18.148Z,56.50
2023-02-19T11:23:31.865Z,56.26
2023-02-19T11:26:38.543Z,55.20
2023-02-19T11:29:40.975Z,53.09
2023-02-19T11:32:43.413Z,50.54
2023-02-19T11:35:48.534Z,49.01
2023-02-19T11:38:53.283Z,48.42
2023-02-19T11:42:20.383Z,48.33
2023-02-19T11:45:29.429Z,47.73
2023-02-19T11:48:59.228Z,47.18
2023-02-19T11:52:59.610Z,47.32
2023-02-19T11:56:12.345Z,45.62
2023-02-19T11:59:34.155Z,45.41
2023-02-19T12:02:44.446Z,43.88
2023-02-19T12:05:56.008Z,44.08
2023-02-19T12:09:23.366Z,45.59
2023-02-19T12:12:32.362Z,44.88
2023-02-19T12:15:51.374Z,44.30
2023-02-19T12:19:18.881Z,44.44
2023-02-19T12:22:25.236Z,43.99
2023-02-19T12:25:50.755Z,44.01
2023-02-19T12:29:11.598Z,43.76
2023-02-19T12:33:01.786Z,43.76
2023-02-19T12:36:21.220Z,42.12
2023-02-19T12:39:29.446Z,42.12
2023-02-19T12:43:07.501Z,41.77
2023-02-19T12:46:20.880Z,41.84
2023-02-19T12:49:36.713Z,42.08
2023-02-19T12:52:44.473Z,42.00
2023-02-19T12:55:49.074Z,40.66
2023-02-19T12:58:59.426Z,41.49
2023-02-19T13:02:28.734Z,42.08
2023-02-19T13:05:44.405Z,41.29
2023-02-19T13:09:06.273Z,41.58
2023-02-19T13:12:26.629Z,40.48
2023-02-19T13:15:48.726Z,39.95
2023-02-19T13:18:56.537Z,39.82
2023-02-19T13:22:30.491Z,39.22
2023-02-19T13:26:12.274Z,41.86
2023-02-19T13:29:21.453Z,40.76
2023-02-19T13:32:38.686Z,42.03
2023-02-19T13:35:52.523Z,41.88
2023-02-19T13:38:57.789Z,41.57
2023-02-19T13:42:03.119Z,41.95
2023-02-19T13:45:07.476Z,41.29
2023-02-19T13:48:15.272Z,41.67
2023-02-19T13:51:27.844Z,41.11
2023-02-19T13:54:40.796Z,40.36
2023-02-19T13:57:45.269Z,40.55
2023-02-19T14:00:51.893Z,40.83
2023-02-19T14:04:08.328Z,40.72
2023-02-19T14:07:11.914Z,41.74
2023-02-19T14:10:54.848Z,41.12
2023-02-19T14:14:00.109Z,41.05
2023-02-19T14:17:06.159Z,41.06
2023-02-19T14:20:10.246Z,41.77
2023-02-19T14:23:18.514Z,41.46
2023-02-19T14:26:23.414Z,41.53
2023-02-19T14:29:29.347Z,42.18
2023-02-19T14:32:33.713Z,41.96
2023-02-19T14:35:45.830Z,41.29
2023-02-19T14:38:57.136Z,40.22
2023-02-19T14:42:07.326Z,40.74
2023-02-19T14:45:11.355Z,41.16
2023-02-19T14:48:31.859Z,41.19
2023-02-19T14:51:45.287Z,41.49
2023-02-19T14:54:57.031Z,42.31
2023-02-19T14:58:06.398Z,43.66
2023-02-19T15:01:29.013Z,44.54
2023-02-19T15:04:38.012Z,45.54
2023-02-19T15:07:42.795Z,46.14
2023-02-19T15:10:47.632Z,46.29
2023-02-19T15:14:01.653Z,46.95
2023-02-19T15:17:07.309Z,47.15
2023-02-19T15:20:16.930Z,47.20
2023-02-19T15:23:25.758Z,47.52
2023-02-19T15:26:36.337Z,47.90
2023-02-19T15:29:47.052Z,48.03
2023-02-19T15:32:59.410Z,48.08
2023-02-19T15:36:07.367Z,48.67
2023-02-19T15:39:25.136Z,48.73
2023-02-19T15:42:31.317Z,48.85
2023-02-19T15:45:47.474Z,49.68
2023-02-19T15:49:04.460Z,49.99
2023-02-19T15:52:18.866Z,50.53
2023-02-19T15:55:39.461Z,50.95
2023-02-19T15:59:00.100Z,50.70
2023-02-19T16:02:04.998Z,51.93
2023-02-19T16:05:14.423Z,51.38
2023-02-19T16:08:20.856Z,52.87
2023-02-19T16:11:24.045Z,54.41
2023-02-19T16:14:38.593Z,54.36
2023-02-19T16:17:46.330Z,56.16
2023-02-19T16:20:50.193Z,57.92
2023-02-19T16:24:09.718Z,58.83
2023-02-19T16:27:29.243Z,59.40
2023-02-19T16:30:34.559Z,58.83
2023-02-19T16:33:42.316Z,57.92
2023-02-19T16:36:48.898Z,57.55
2023-02-19T16:40:09.339Z,56.44
2023-02-19T16:43:18.278Z,57.23
2023-02-19T16:46:21.572Z,59.73
2023-02-19T16:49:25.698Z,60.93
2023-02-19T16:52:30.669Z,59.96
2023-02-19T16:55:37.167Z,60.85
2023-02-19T16:58:40.733Z,61.76
2023-02-19T17:01:44.807Z,61.81
2023-02-19T17:04:50.396Z,61.97
2023-02-19T17:07:54.927Z,62.51
2023-02-19T17:10:59.979Z,63.14
2023-02-19T17:14:06.556Z,62.41
2023-02-19T17:17:10.569Z,63.74
2023-02-19T17:20:20.343Z,63.50
2023-02-19T17:23:24.583Z,64.17
2023-02-19T17:26:31.022Z,66.07
2023-02-19T17:29:34.720Z,66.84
2023-02-19T17:32:39.497Z,66.68
2023-02-19T17:35:45.147Z,66.25
2023-02-19T17:38:48.747Z,66.20
2023-02-19T17:41:53.039Z,67.75
2023-02-19T17:44:56.803Z,67.92
2023-02-19T17:48:01.380Z,68.08
2023-02-19T17:51:05.064Z,69.86
2023-02-19T17:54:10.156Z,70.37
2023-02-19T17:57:14.249Z,71.06
2023-02-19T18:00:22.210Z,71.63
2023-02-19T18:03:27.022Z,71.68
2023-02-19T18:06:31.048Z,72.24
2023-02-19T18:09:35.049Z,73.24
2023-02-19T18:12:41.397Z,73.56
2023-02-19T18:15:47.414Z,74.22
2023-02-19T18:18:54.123Z,73.74
2023-02-19T18:21:58.769Z,75.01
2023-02-19T18:25:05.182Z,74.42
2023-02-19T18:28:10.537Z,72.31
2023-02-19T18:31:15.084Z,71.59
2023-02-19T18:34:20.280Z,71.57
2023-02-19T18:37:25.449Z,71.55
2023-02-19T18:40:31.499Z,70.59
2023-02-19T18:43:35.613Z,69.58
2023-02-19T18:46:39.011Z,68.26
2023-02-19T18:49:50.511Z,67.98
2023-02-19T18:52:54.378Z,66.39
2023-02-19T18:56:02.828Z,65.82
2023-02-19T18:59:07.039Z,65.27
2023-02-19T19:02:12.064Z,65.04
2023-02-19T19:05:21.708Z,63.28
2023-02-19T19:08:25.697Z,62.30
2023-02-19T19:11:30.177Z,62.22
2023-02-19T19:14:34.665Z,62.06
2023-02-19T19:17:40.799Z,62.12
2023-02-19T19:20:45.405Z,62.69
2023-02-19T19:23:51.056Z,62.57
2023-02-19T19:26:55.217Z,61.30
2023-02-19T19:29:59.154Z,60.55
2023-02-19T19:33:04.411Z,60.38
2023-02-19T19:36:10.583Z,60.20
2023-02-19T19:39:14.521Z,60.15
2023-02-19T19:42:19.532Z,58.58
2023-02-19T19:45:27.874Z,59.26
2023-02-19T19:48:35.002Z,59.98
2023-02-19T19:51:47.798Z,62.44
2023-02-19T19:54:55.542Z,63.41
2023-02-19T19:58:01.374Z,64.89
2023-02-19T20:01:06.902Z,66.45
2023-02-19T20:04:13.961Z,67.31
2023-02-19T20:07:18.472Z,67.85
2023-02-19T20:10:23.328Z,70.03
2023-02-19T20:13:34.523Z,71.73
2023-02-19T20:16:40.193Z,71.78
2023-02-19T20:19:46.061Z,74.09
2023-02-19T20:22:54.954Z,74.27
2023-02-19T20:26:08.408Z,74.45
2023-02-19T20:29:13.877Z,75.03
2023-02-19T20:32:21.260Z,75.48
2023-02-19T20:35:29.689Z,75.84
2023-02-19T20:38:33.444Z,75.68
2023-02-19T20:41:37.614Z,76.89
2023-02-19T20:44:44.150Z,76.51
2023-02-19T20:47:48.652Z,77.15
2023-02-19T20:50:52.555Z,77.51
2023-02-19T20:53:59.633Z,77.47
2023-02-19T20:57:06.491Z,77.79
2023-02-19T21:00:11.837Z,77.06
2023-02-19T21:03:17.318Z,77.69
2023-02-19T21:06:22.437Z,77.61
2023-02-19T21:09:26.669Z,77.28
2023-02-19T21:12:31.137Z,77.55
2023-02-19T21:15:36.138Z,77.57
2023-02-19T21:18:39.428Z,77.50
2023-02-19T21:21:44.638Z,77.61
2023-02-19T21:24:53.294Z,77.67
2023-02-19T21:27:57.235Z,77.52
2023-02-19T21:31:00.225Z,77.63
2023-02-19T21:34:05.527Z,77.45
2023-02-19T21:37:08.720Z,77.30
2023-02-19T21:40:13.375Z,77.45
2023-02-19T21:43:16.679Z,77.33
2023-02-19T21:46:20.435Z,77.45
2023-02-19T21:49:23.861Z,77.39
2023-02-19T21:52:27.247Z,77.67
2023-02-19T21:55:29.617Z,77.42
2023-02-19T21:58:33.860Z,77.25
2023-02-19T22:01:40.710Z,77.51
2023-02-19T22:04:43.203Z,77.50
2023-02-19T22:07:47.277Z,77.99
2023-02-19T22:10:52.225Z,78.18
2023-02-19T22:13:54.553Z,78.44
2023-02-19T22:16:58.172Z,78.69
2023-02-19T22:20:03.288Z,79.14
2023-02-19T22:23:06.607Z,79.27
2023-02-19T22:26:09.089Z,79.63
2023-02-19T22:29:15.210Z,80.34
2023-02-19T22:32:19.098Z,81.00
2023-02-19T22:35:22.458Z,80.89
2023-02-19T22:38:25.608Z,81.09
2023-02-19T22:41:29.183Z,81.17
2023-02-19T22:44:31.575Z,81.61
2023-02-19T22:47:34.912Z,82.10
2023-02-19T22:50:37.992Z,82.26
2023-02-19T22:53:54.305Z,82.47
2023-02-19T22:56:56.891Z,82.86
2023-02-19T23:00:00.081Z,83.72
2023-02-19T23:03:03.876Z,84.07
2023-02-19T23:06:06.698Z,84.33
2023-02-19T23:09:14.614Z,84.25
2023-02-19T23:12:16.953Z,84.27
2023-02-19T23:15:19.289Z,84.62
2023-02-19T23:18:21.693Z,84.37
2023-02-19T23:21:24.079Z,84.71
2023-02-19T23:24:26.528Z,84.76
2023-02-19T23:27:28.829Z,84.58
2023-02-19T23:30:33.383Z,84.70
2023-02-19T23:33:36.270Z,84.70
2023-02-19T23:36:43.442Z,85.02
2023-02-19T23:39:45.776Z,85.33
2023-02-19T23:42:48.166Z,84.89
2023-02-19T23:45:50.842Z,84.85
2023-02-19T23:48:53.377Z,85.07
2023-02-19T23:51:56.036Z,85.21
2023-02-19T23:54:59.146Z,85.54
2023-02-19T23:58:01.568Z,85.19
